sensor_id;sensor_type;location;lat;lon;timestamp;temperature;humidity
36322;DHT22;23564;48.290;11.460;2022-08-21T00:02:00;16.70;1.00
36322;DHT22;23564;48.290;11.460;2022-08-21T00:04:25;16.80;1.00
36322;DHT22;23564;48.290;11.460;2022-08-21T00:06:51;16.80;1.00
36322;DHT22;23564;48.290;11.460;2022-08-21T00:09:18;16.70;1.00
36322;DHT22;23564;48.290;11.460;2022-08-21T00:11:44;16.70;1.00
36322;DHT22;23564;48.290;11.460;2022-08-21T00:14:10;16.70;1.00
36322;DHT22;23564;48.290;11.460;2022-08-21T00:16:37;16.60;1.00
36322;DHT22;23564;48.290;11.460;2022-08-21T00:19:04;16.60;1.00
36322;DHT22;23564;48.290;11.460;2022-08-21T00:21:30;16.60;1.00
36322;DHT22;23564;48.290;11.460;2022-08-21T00:23:56;16.50;1.00
36322;DHT22;23564;48.290;11.460;2022-08-21T00:26:22;16.50;1.00
36322;DHT22;23564;48.290;11.460;2022-08-21T00:28:48;16.50;1.00
36322;DHT22;23564;48.290;11.460;2022-08-21T00:31:14;16.50;1.00
36322;DHT22;23564;48.290;11.460;2022-08-21T00:33:40;16.50;1.00
36322;DHT22;23564;48.290;11.460;2022-08-21T00:36:06;16.50;1.00
36322;DHT22;23564;48.290;11.460;2022-08-21T00:38:33;16.50;1.00
36322;DHT22;23564;48.290;11.460;2022-08-21T00:41:00;16.50;1.00
36322;DHT22;23564;48.290;11.460;2022-08-21T00:43:29;16.40;1.00
36322;DHT22;23564;48.290;11.460;2022-08-21T00:45:56;16.50;1.00
36322;DHT22;23564;48.290;11.460;2022-08-21T00:48:22;16.40;1.00
36322;DHT22;23564;48.290;11.460;2022-08-21T00:53:30;16.40;1.00
36322;DHT22;23564;48.290;11.460;2022-08-21T00:55:57;16.40;1.00
36322;DHT22;23564;48.290;11.460;2022-08-21T00:58:23;16.30;1.00
36322;DHT22;23564;48.290;11.460;2022-08-21T01:00:51;16.30;1.00
36322;DHT22;23564;48.290;11.460;2022-08-21T01:03:21;16.30;1.00
36322;DHT22;23564;48.290;11.460;2022-08-21T01:05:47;16.30;1.00
36322;DHT22;23564;48.290;11.460;2022-08-21T01:08:14;16.30;1.00
36322;DHT22;23564;48.290;11.460;2022-08-21T01:10:41;16.30;1.00
36322;DHT22;23564;48.290;11.460;2022-08-21T01:13:09;16.20;1.00
36322;DHT22;23564;48.290;11.460;2022-08-21T01:15:38;16.20;1.00
36322;DHT22;23564;48.290;11.460;2022-08-21T01:18:07;16.20;1.00
36322;DHT22;23564;48.290;11.460;2022-08-21T01:20:34;16.20;1.00
36322;DHT22;23564;48.290;11.460;2022-08-21T01:23:01;16.10;1.00
36322;DHT22;23564;48.290;11.460;2022-08-21T01:25:27;16.10;1.00
36322;DHT22;23564;48.290;11.460;2022-08-21T01:27:53;16.10;1.00
36322;DHT22;23564;48.290;11.460;2022-08-21T01:30:23;16.10;1.00
36322;DHT22;23564;48.290;11.460;2022-08-21T01:32:49;16.10;1.00
36322;DHT22;23564;48.290;11.460;2022-08-21T01:35:18;16.10;1.00
36322;DHT22;23564;48.290;11.460;2022-08-21T01:37:44;16.00;1.00
36322;DHT22;23564;48.290;11.460;2022-08-21T01:40:11;16.10;1.00
36322;DHT22;23564;48.290;11.460;2022-08-21T01:42:38;16.00;1.00
36322;DHT22;23564;48.290;11.460;2022-08-21T01:45:05;16.00;1.00
36322;DHT22;23564;48.290;11.460;2022-08-21T01:47:31;16.00;1.00
36322;DHT22;23564;48.290;11.460;2022-08-21T01:49:56;16.00;1.00
36322;DHT22;23564;48.290;11.460;2022-08-21T01:52:22;16.00;1.00
36322;DHT22;23564;48.290;11.460;2022-08-21T01:54:48;16.00;1.00
36322;DHT22;23564;48.290;11.460;2022-08-21T01:57:14;16.00;1.00
36322;DHT22;23564;48.290;11.460;2022-08-21T01:59:39;16.00;1.00
36322;DHT22;23564;48.290;11.460;2022-08-21T02:02:05;15.90;1.00
36322;DHT22;23564;48.290;11.460;2022-08-21T02:04:32;15.90;1.00
36322;DHT22;23564;48.290;11.460;2022-08-21T02:06:58;15.90;1.00
36322;DHT22;23564;48.290;11.460;2022-08-21T02:09:24;15.90;1.00
36322;DHT22;23564;48.290;11.460;2022-08-21T02:11:50;15.90;1.00
36322;DHT22;23564;48.290;11.460;2022-08-21T02:14:16;15.80;1.00
36322;DHT22;23564;48.290;11.460;2022-08-21T02:16:43;15.90;1.00
36322;DHT22;23564;48.290;11.460;2022-08-21T02:19:11;15.80;1.00
36322;DHT22;23564;48.290;11.460;2022-08-21T02:21:36;15.80;1.00
36322;DHT22;23564;48.290;11.460;2022-08-21T02:24:02;15.80;1.00
36322;DHT22;23564;48.290;11.460;2022-08-21T02:26:28;15.80;1.00
36322;DHT22;23564;48.290;11.460;2022-08-21T02:28:54;15.80;1.00
36322;DHT22;23564;48.290;11.460;2022-08-21T02:31:20;15.80;1.00
36322;DHT22;23564;48.290;11.460;2022-08-21T02:33:45;15.80;1.00
36322;DHT22;23564;48.290;11.460;2022-08-21T02:36:11;15.80;1.00
36322;DHT22;23564;48.290;11.460;2022-08-21T02:38:39;15.80;1.00
36322;DHT22;23564;48.290;11.460;2022-08-21T02:41:13;15.70;1.00
36322;DHT22;23564;48.290;11.460;2022-08-21T02:43:38;15.70;1.00
36322;DHT22;23564;48.290;11.460;2022-08-21T02:46:05;15.70;1.00
36322;DHT22;23564;48.290;11.460;2022-08-21T02:48:32;15.70;1.00
36322;DHT22;23564;48.290;11.460;2022-08-21T02:51:01;15.70;1.00
36322;DHT22;23564;48.290;11.460;2022-08-21T02:53:28;15.70;1.00
36322;DHT22;23564;48.290;11.460;2022-08-21T02:55:56;15.60;1.00
36322;DHT22;23564;48.290;11.460;2022-08-21T02:58:25;15.60;1.00
36322;DHT22;23564;48.290;11.460;2022-08-21T03:00:51;15.60;1.00
36322;DHT22;23564;48.290;11.460;2022-08-21T03:03:17;15.60;1.00
36322;DHT22;23564;48.290;11.460;2022-08-21T03:05:43;15.60;1.00
36322;DHT22;23564;48.290;11.460;2022-08-21T03:08:12;15.50;1.00
36322;DHT22;23564;48.290;11.460;2022-08-21T03:10:45;15.50;1.00
36322;DHT22;23564;48.290;11.460;2022-08-21T03:13:12;15.50;1.00
36322;DHT22;23564;48.290;11.460;2022-08-21T03:15:38;15.50;1.00
36322;DHT22;23564;48.290;11.460;2022-08-21T03:18:05;15.50;1.00
36322;DHT22;23564;48.290;11.460;2022-08-21T03:20:33;15.50;1.00
36322;DHT22;23564;48.290;11.460;2022-08-21T03:22:59;15.50;1.00
36322;DHT22;23564;48.290;11.460;2022-08-21T03:25:26;15.50;1.00
36322;DHT22;23564;48.290;11.460;2022-08-21T03:27:53;15.50;1.00
36322;DHT22;23564;48.290;11.460;2022-08-21T03:30:20;15.40;1.00
36322;DHT22;23564;48.290;11.460;2022-08-21T03:32:49;15.40;1.00
36322;DHT22;23564;48.290;11.460;2022-08-21T03:35:16;15.40;1.00
36322;DHT22;23564;48.290;11.460;2022-08-21T03:37:42;15.40;1.00
36322;DHT22;23564;48.290;11.460;2022-08-21T03:40:13;15.40;1.00
36322;DHT22;23564;48.290;11.460;2022-08-21T03:42:39;15.40;1.00
36322;DHT22;23564;48.290;11.460;2022-08-21T03:45:06;15.40;1.00
36322;DHT22;23564;48.290;11.460;2022-08-21T03:47:32;15.30;1.00
36322;DHT22;23564;48.290;11.460;2022-08-21T03:49:57;15.30;1.00
36322;DHT22;23564;48.290;11.460;2022-08-21T03:52:24;15.30;1.00
36322;DHT22;23564;48.290;11.460;2022-08-21T03:54:50;15.30;1.00
36322;DHT22;23564;48.290;11.460;2022-08-21T03:57:16;15.30;1.00
36322;DHT22;23564;48.290;11.460;2022-08-21T03:59:42;15.30;1.00
36322;DHT22;23564;48.290;11.460;2022-08-21T04:02:09;15.20;1.00
36322;DHT22;23564;48.290;11.460;2022-08-21T04:04:35;15.20;1.00
36322;DHT22;23564;48.290;11.460;2022-08-21T04:07:01;15.20;1.00
36322;DHT22;23564;48.290;11.460;2022-08-21T04:09:27;15.20;1.00
36322;DHT22;23564;48.290;11.460;2022-08-21T04:11:53;15.20;1.00
36322;DHT22;23564;48.290;11.460;2022-08-21T04:14:19;15.20;1.00
36322;DHT22;23564;48.290;11.460;2022-08-21T04:16:46;15.20;1.00
36322;DHT22;23564;48.290;11.460;2022-08-21T04:19:12;15.20;1.00
36322;DHT22;23564;48.290;11.460;2022-08-21T04:21:41;15.20;1.00
36322;DHT22;23564;48.290;11.460;2022-08-21T04:24:08;15.20;1.00
36322;DHT22;23564;48.290;11.460;2022-08-21T04:26:35;15.20;1.00
36322;DHT22;23564;48.290;11.460;2022-08-21T04:29:02;15.20;1.00
36322;DHT22;23564;48.290;11.460;2022-08-21T04:31:28;15.20;1.00
36322;DHT22;23564;48.290;11.460;2022-08-21T04:33:54;15.20;1.00
36322;DHT22;23564;48.290;11.460;2022-08-21T04:36:20;15.20;1.00
36322;DHT22;23564;48.290;11.460;2022-08-21T04:38:46;15.20;1.00
36322;DHT22;23564;48.290;11.460;2022-08-21T04:41:12;15.20;1.00
36322;DHT22;23564;48.290;11.460;2022-08-21T04:43:39;15.20;1.00
36322;DHT22;23564;48.290;11.460;2022-08-21T04:46:05;15.10;1.00
36322;DHT22;23564;48.290;11.460;2022-08-21T04:48:31;15.20;1.00
36322;DHT22;23564;48.290;11.460;2022-08-21T04:51:11;15.10;1.00
36322;DHT22;23564;48.290;11.460;2022-08-21T04:53:44;15.10;1.00
36322;DHT22;23564;48.290;11.460;2022-08-21T04:56:35;15.10;1.00
36322;DHT22;23564;48.290;11.460;2022-08-21T04:59:12;15.10;1.00
36322;DHT22;23564;48.290;11.460;2022-08-21T05:01:40;15.10;1.00
36322;DHT22;23564;48.290;11.460;2022-08-21T05:04:08;15.20;1.00
36322;DHT22;23564;48.290;11.460;2022-08-21T05:06:37;15.10;1.00
36322;DHT22;23564;48.290;11.460;2022-08-21T05:09:04;15.20;1.00
36322;DHT22;23564;48.290;11.460;2022-08-21T05:11:31;15.20;1.00
36322;DHT22;23564;48.290;11.460;2022-08-21T05:13:57;15.20;1.00
36322;DHT22;23564;48.290;11.460;2022-08-21T05:16:22;15.30;1.00
36322;DHT22;23564;48.290;11.460;2022-08-21T05:18:48;15.20;1.00
36322;DHT22;23564;48.290;11.460;2022-08-21T05:21:13;15.30;1.00
36322;DHT22;23564;48.290;11.460;2022-08-21T05:23:39;15.40;1.00
36322;DHT22;23564;48.290;11.460;2022-08-21T05:26:05;15.40;1.00
36322;DHT22;23564;48.290;11.460;2022-08-21T05:28:31;15.50;1.00
36322;DHT22;23564;48.290;11.460;2022-08-21T05:30:57;15.50;1.00
36322;DHT22;23564;48.290;11.460;2022-08-21T05:33:22;15.50;1.00
36322;DHT22;23564;48.290;11.460;2022-08-21T05:35:52;15.50;1.00
36322;DHT22;23564;48.290;11.460;2022-08-21T05:38:21;15.60;1.00
36322;DHT22;23564;48.290;11.460;2022-08-21T05:40:46;15.60;1.00
36322;DHT22;23564;48.290;11.460;2022-08-21T05:43:12;15.70;1.00
36322;DHT22;23564;48.290;11.460;2022-08-21T05:45:38;15.70;1.00
36322;DHT22;23564;48.290;11.460;2022-08-21T05:48:13;15.70;1.00
36322;DHT22;23564;48.290;11.460;2022-08-21T05:50:40;15.70;1.00
36322;DHT22;23564;48.290;11.460;2022-08-21T05:53:06;15.80;1.00
36322;DHT22;23564;48.290;11.460;2022-08-21T05:55:32;15.80;1.00
36322;DHT22;23564;48.290;11.460;2022-08-21T05:57:57;15.80;1.00
36322;DHT22;23564;48.290;11.460;2022-08-21T06:00:24;15.80;1.00
36322;DHT22;23564;48.290;11.460;2022-08-21T06:02:49;15.80;1.00
36322;DHT22;23564;48.290;11.460;2022-08-21T06:05:16;15.90;1.00
36322;DHT22;23564;48.290;11.460;2022-08-21T06:07:42;15.90;1.00
36322;DHT22;23564;48.290;11.460;2022-08-21T06:10:08;15.90;1.00
36322;DHT22;23564;48.290;11.460;2022-08-21T06:12:33;15.90;1.00
36322;DHT22;23564;48.290;11.460;2022-08-21T06:14:59;16.00;1.00
36322;DHT22;23564;48.290;11.460;2022-08-21T06:17:25;16.00;1.00
36322;DHT22;23564;48.290;11.460;2022-08-21T06:19:52;16.10;1.00
36322;DHT22;23564;48.290;11.460;2022-08-21T06:22:18;16.20;1.00
36322;DHT22;23564;48.290;11.460;2022-08-21T06:24:43;16.30;1.00
36322;DHT22;23564;48.290;11.460;2022-08-21T06:27:09;16.30;1.00
36322;DHT22;23564;48.290;11.460;2022-08-21T06:29:35;16.30;1.00
36322;DHT22;23564;48.290;11.460;2022-08-21T06:32:01;16.30;1.00
36322;DHT22;23564;48.290;11.460;2022-08-21T06:34:27;16.30;1.00
36322;DHT22;23564;48.290;11.460;2022-08-21T06:36:52;16.30;1.00
36322;DHT22;23564;48.290;11.460;2022-08-21T06:39:18;16.40;1.00
36322;DHT22;23564;48.290;11.460;2022-08-21T06:41:44;16.40;1.00
36322;DHT22;23564;48.290;11.460;2022-08-21T06:44:10;16.50;1.00
36322;DHT22;23564;48.290;11.460;2022-08-21T06:46:36;16.60;1.00
36322;DHT22;23564;48.290;11.460;2022-08-21T06:49:02;16.60;1.00
36322;DHT22;23564;48.290;11.460;2022-08-21T06:51:27;16.70;1.00
36322;DHT22;23564;48.290;11.460;2022-08-21T06:53:54;16.70;1.00
36322;DHT22;23564;48.290;11.460;2022-08-21T06:56:20;16.70;1.00
36322;DHT22;23564;48.290;11.460;2022-08-21T06:58:45;16.80;1.00
36322;DHT22;23564;48.290;11.460;2022-08-21T07:01:11;16.80;1.00
36322;DHT22;23564;48.290;11.460;2022-08-21T07:03:39;16.90;1.00
36322;DHT22;23564;48.290;11.460;2022-08-21T07:06:07;16.90;1.00
36322;DHT22;23564;48.290;11.460;2022-08-21T07:08:33;17.00;1.00
36322;DHT22;23564;48.290;11.460;2022-08-21T07:11:01;17.00;1.00
36322;DHT22;23564;48.290;11.460;2022-08-21T07:13:28;17.10;1.00
36322;DHT22;23564;48.290;11.460;2022-08-21T07:15:53;17.00;1.00
36322;DHT22;23564;48.290;11.460;2022-08-21T07:18:19;17.10;1.00
36322;DHT22;23564;48.290;11.460;2022-08-21T07:20:45;17.10;1.00
36322;DHT22;23564;48.290;11.460;2022-08-21T07:23:29;17.10;1.00
36322;DHT22;23564;48.290;11.460;2022-08-21T07:25:55;17.20;1.00
36322;DHT22;23564;48.290;11.460;2022-08-21T07:28:21;17.20;1.00
36322;DHT22;23564;48.290;11.460;2022-08-21T07:30:51;17.30;1.00
36322;DHT22;23564;48.290;11.460;2022-08-21T07:33:17;17.30;1.00
36322;DHT22;23564;48.290;11.460;2022-08-21T07:35:43;17.30;1.00
36322;DHT22;23564;48.290;11.460;2022-08-21T07:38:08;17.30;1.00
36322;DHT22;23564;48.290;11.460;2022-08-21T07:40:34;17.30;1.00
36322;DHT22;23564;48.290;11.460;2022-08-21T07:43:00;17.30;1.00
36322;DHT22;23564;48.290;11.460;2022-08-21T07:45:25;17.40;1.00
36322;DHT22;23564;48.290;11.460;2022-08-21T07:47:51;17.40;1.00
36322;DHT22;23564;48.290;11.460;2022-08-21T07:50:18;17.50;1.00
36322;DHT22;23564;48.290;11.460;2022-08-21T07:52:44;17.50;1.00
36322;DHT22;23564;48.290;11.460;2022-08-21T07:55:12;17.60;1.00
36322;DHT22;23564;48.290;11.460;2022-08-21T07:57:38;17.60;1.00
36322;DHT22;23564;48.290;11.460;2022-08-21T08:00:10;17.60;1.00
36322;DHT22;23564;48.290;11.460;2022-08-21T08:02:36;17.70;1.00
36322;DHT22;23564;48.290;11.460;2022-08-21T08:05:07;17.70;1.00
36322;DHT22;23564;48.290;11.460;2022-08-21T08:07:33;17.80;1.00
36322;DHT22;23564;48.290;11.460;2022-08-21T08:10:00;17.80;1.00
36322;DHT22;23564;48.290;11.460;2022-08-21T08:12:25;17.90;1.00
36322;DHT22;23564;48.290;11.460;2022-08-21T08:14:59;17.90;1.00
36322;DHT22;23564;48.290;11.460;2022-08-21T08:17:25;17.90;1.00
36322;DHT22;23564;48.290;11.460;2022-08-21T08:19:51;17.90;1.00
36322;DHT22;23564;48.290;11.460;2022-08-21T08:22:18;17.90;1.00
36322;DHT22;23564;48.290;11.460;2022-08-21T08:24:47;18.00;1.00
36322;DHT22;23564;48.290;11.460;2022-08-21T08:27:14;18.00;1.00
36322;DHT22;23564;48.290;11.460;2022-08-21T08:29:39;18.10;1.00
36322;DHT22;23564;48.290;11.460;2022-08-21T08:32:05;18.20;1.00
36322;DHT22;23564;48.290;11.460;2022-08-21T08:34:36;18.20;99.90
36322;DHT22;23564;48.290;11.460;2022-08-21T08:37:02;18.20;99.90
36322;DHT22;23564;48.290;11.460;2022-08-21T08:39:29;18.20;1.00
36322;DHT22;23564;48.290;11.460;2022-08-21T08:42:01;18.20;1.00
36322;DHT22;23564;48.290;11.460;2022-08-21T08:44:29;18.40;1.00
36322;DHT22;23564;48.290;11.460;2022-08-21T08:46:56;18.40;1.00
36322;DHT22;23564;48.290;11.460;2022-08-21T08:49:27;18.40;99.90
36322;DHT22;23564;48.290;11.460;2022-08-21T08:52:06;18.50;1.00
36322;DHT22;23564;48.290;11.460;2022-08-21T08:54:37;18.60;99.90
36322;DHT22;23564;48.290;11.460;2022-08-21T08:57:07;18.70;1.00
36322;DHT22;23564;48.290;11.460;2022-08-21T08:59:44;18.80;99.90
36322;DHT22;23564;48.290;11.460;2022-08-21T09:02:13;18.80;1.00
36322;DHT22;23564;48.290;11.460;2022-08-21T09:04:39;18.90;1.00
36322;DHT22;23564;48.290;11.460;2022-08-21T09:09:58;19.00;99.90
36322;DHT22;23564;48.290;11.460;2022-08-21T09:12:50;19.00;99.90
36322;DHT22;23564;48.290;11.460;2022-08-21T09:18:24;19.10;99.90
36322;DHT22;23564;48.290;11.460;2022-08-21T09:23:57;19.30;99.90
36322;DHT22;23564;48.290;11.460;2022-08-21T09:26:40;19.50;99.90
36322;DHT22;23564;48.290;11.460;2022-08-21T09:29:11;19.60;99.90
36322;DHT22;23564;48.290;11.460;2022-08-21T09:31:37;19.60;99.90
36322;DHT22;23564;48.290;11.460;2022-08-21T09:34:08;19.70;99.90
36322;DHT22;23564;48.290;11.460;2022-08-21T09:36:41;19.70;99.90
36322;DHT22;23564;48.290;11.460;2022-08-21T09:39:10;19.70;99.90
36322;DHT22;23564;48.290;11.460;2022-08-21T09:41:37;19.80;99.90
36322;DHT22;23564;48.290;11.460;2022-08-21T09:44:05;19.80;99.90
36322;DHT22;23564;48.290;11.460;2022-08-21T09:46:32;19.80;99.90
36322;DHT22;23564;48.290;11.460;2022-08-21T09:49:00;19.90;99.90
36322;DHT22;23564;48.290;11.460;2022-08-21T09:51:32;20.00;99.90
36322;DHT22;23564;48.290;11.460;2022-08-21T09:59:42;20.20;99.90
36322;DHT22;23564;48.290;11.460;2022-08-21T10:04:52;20.30;99.90
36322;DHT22;23564;48.290;11.460;2022-08-21T10:07:21;20.40;99.90
36322;DHT22;23564;48.290;11.460;2022-08-21T10:10:05;20.50;99.90
36322;DHT22;23564;48.290;11.460;2022-08-21T10:15:47;20.50;5.30
36322;DHT22;23564;48.290;11.460;2022-08-21T10:18:46;20.60;1.00
36322;DHT22;23564;48.290;11.460;2022-08-21T10:24:03;20.60;1.00
36322;DHT22;23564;48.290;11.460;2022-08-21T10:37:18;20.50;99.90
36322;DHT22;23564;48.290;11.460;2022-08-21T10:40:27;20.40;99.90
36322;DHT22;23564;48.290;11.460;2022-08-21T10:43:16;20.40;99.90
36322;DHT22;23564;48.290;11.460;2022-08-21T10:46:07;20.30;99.90
36322;DHT22;23564;48.290;11.460;2022-08-21T10:48:58;20.20;44.50
36322;DHT22;23564;48.290;11.460;2022-08-21T10:51:34;20.20;1.00
36322;DHT22;23564;48.290;11.460;2022-08-21T10:54:29;20.30;99.90
36322;DHT22;23564;48.290;11.460;2022-08-21T10:57:05;20.40;99.90
36322;DHT22;23564;48.290;11.460;2022-08-21T10:59:57;20.60;1.00
36322;DHT22;23564;48.290;11.460;2022-08-21T11:02:35;20.70;17.40
36322;DHT22;23564;48.290;11.460;2022-08-21T11:05:26;20.80;4.90
36322;DHT22;23564;48.290;11.460;2022-08-21T11:08:12;20.90;99.90
36322;DHT22;23564;48.290;11.460;2022-08-21T11:14:32;20.90;99.90
36322;DHT22;23564;48.290;11.460;2022-08-21T11:16:36;21.00;99.90
36322;DHT22;23564;48.290;11.460;2022-08-21T11:19:12;20.90;99.90
36322;DHT22;23564;48.290;11.460;2022-08-21T11:22:13;20.90;91.10
36322;DHT22;23564;48.290;11.460;2022-08-21T11:25:17;21.00;99.90
36322;DHT22;23564;48.290;11.460;2022-08-21T11:28:13;20.90;99.90
36322;DHT22;23564;48.290;11.460;2022-08-21T11:30:52;21.00;94.80
36322;DHT22;23564;48.290;11.460;2022-08-21T11:33:30;20.90;95.50
36322;DHT22;23564;48.290;11.460;2022-08-21T11:36:07;20.90;99.90
36322;DHT22;23564;48.290;11.460;2022-08-21T11:38:45;21.00;99.90
36322;DHT22;23564;48.290;11.460;2022-08-21T11:41:23;21.10;28.90
36322;DHT22;23564;48.290;11.460;2022-08-21T11:46:49;21.40;1.00
36322;DHT22;23564;48.290;11.460;2022-08-21T11:57:39;21.50;1.00
36322;DHT22;23564;48.290;11.460;2022-08-21T12:00:10;21.40;1.00
36322;DHT22;23564;48.290;11.460;2022-08-21T12:02:42;21.30;99.90
36322;DHT22;23564;48.290;11.460;2022-08-21T12:05:11;21.20;99.90
36322;DHT22;23564;48.290;11.460;2022-08-21T12:07:42;21.20;99.90
36322;DHT22;23564;48.290;11.460;2022-08-21T12:10:11;21.40;99.90
36322;DHT22;23564;48.290;11.460;2022-08-21T12:12:40;21.50;99.90
36322;DHT22;23564;48.290;11.460;2022-08-21T12:15:36;21.50;99.90
36322;DHT22;23564;48.290;11.460;2022-08-21T12:18:04;21.50;99.90
36322;DHT22;23564;48.290;11.460;2022-08-21T12:20:56;21.50;99.90
36322;DHT22;23564;48.290;11.460;2022-08-21T12:23:43;21.50;99.90
36322;DHT22;23564;48.290;11.460;2022-08-21T12:28:39;21.50;1.00
36322;DHT22;23564;48.290;11.460;2022-08-21T12:31:17;21.60;1.00
36322;DHT22;23564;48.290;11.460;2022-08-21T12:33:51;21.60;99.90
36322;DHT22;23564;48.290;11.460;2022-08-21T12:36:20;21.70;99.90
36322;DHT22;23564;48.290;11.460;2022-08-21T12:39:03;21.80;99.90
36322;DHT22;23564;48.290;11.460;2022-08-21T12:44:16;21.70;99.90
36322;DHT22;23564;48.290;11.460;2022-08-21T12:47:01;21.60;99.90
36322;DHT22;23564;48.290;11.460;2022-08-21T12:49:45;21.60;99.90
36322;DHT22;23564;48.290;11.460;2022-08-21T12:52:24;21.60;99.90
36322;DHT22;23564;48.290;11.460;2022-08-21T12:54:53;21.60;1.00
36322;DHT22;23564;48.290;11.460;2022-08-21T12:57:28;21.60;1.00
36322;DHT22;23564;48.290;11.460;2022-08-21T12:59:59;21.60;1.00
36322;DHT22;23564;48.290;11.460;2022-08-21T13:02:31;21.60;99.90
36322;DHT22;23564;48.290;11.460;2022-08-21T13:04:57;21.60;99.90
36322;DHT22;23564;48.290;11.460;2022-08-21T13:07:29;21.70;99.90
36322;DHT22;23564;48.290;11.460;2022-08-21T13:10:06;21.70;99.90
36322;DHT22;23564;48.290;11.460;2022-08-21T13:12:33;21.70;99.90
36322;DHT22;23564;48.290;11.460;2022-08-21T13:15:04;21.70;99.90
36322;DHT22;23564;48.290;11.460;2022-08-21T13:17:34;21.70;99.90
36322;DHT22;23564;48.290;11.460;2022-08-21T13:20:07;21.90;99.90
36322;DHT22;23564;48.290;11.460;2022-08-21T13:22:41;21.90;99.90
36322;DHT22;23564;48.290;11.460;2022-08-21T13:25:13;22.10;99.90
36322;DHT22;23564;48.290;11.460;2022-08-21T13:27:41;22.20;99.90
36322;DHT22;23564;48.290;11.460;2022-08-21T13:30:11;22.30;99.90
36322;DHT22;23564;48.290;11.460;2022-08-21T13:32:43;22.30;99.90
36322;DHT22;23564;48.290;11.460;2022-08-21T13:35:34;22.40;99.90
36322;DHT22;23564;48.290;11.460;2022-08-21T13:38:03;22.40;99.90
36322;DHT22;23564;48.290;11.460;2022-08-21T13:40:38;22.30;99.90
36322;DHT22;23564;48.290;11.460;2022-08-21T13:43:14;22.30;99.90
36322;DHT22;23564;48.290;11.460;2022-08-21T13:45:46;22.30;99.90
36322;DHT22;23564;48.290;11.460;2022-08-21T13:48:12;22.40;99.90
36322;DHT22;23564;48.290;11.460;2022-08-21T13:50:39;22.40;99.90
36322;DHT22;23564;48.290;11.460;2022-08-21T13:53:07;22.40;99.90
36322;DHT22;23564;48.290;11.460;2022-08-21T13:55:44;22.40;99.90
36322;DHT22;23564;48.290;11.460;2022-08-21T13:58:10;22.50;99.90
36322;DHT22;23564;48.290;11.460;2022-08-21T14:00:50;22.40;99.90
36322;DHT22;23564;48.290;11.460;2022-08-21T14:03:42;22.40;99.90
36322;DHT22;23564;48.290;11.460;2022-08-21T14:06:18;22.40;99.90
36322;DHT22;23564;48.290;11.460;2022-08-21T14:09:00;22.40;90.60
36322;DHT22;23564;48.290;11.460;2022-08-21T14:11:31;22.40;91.10
36322;DHT22;23564;48.290;11.460;2022-08-21T14:14:01;22.30;96.40
36322;DHT22;23564;48.290;11.460;2022-08-21T14:16:52;22.30;29.80
36322;DHT22;23564;48.290;11.460;2022-08-21T14:19:21;22.30;26.60
36322;DHT22;23564;48.290;11.460;2022-08-21T14:21:48;22.40;1.00
36322;DHT22;23564;48.290;11.460;2022-08-21T14:24:24;22.40;1.00
36322;DHT22;23564;48.290;11.460;2022-08-21T14:26:52;22.40;11.60
36322;DHT22;23564;48.290;11.460;2022-08-21T14:29:21;22.50;1.00
36322;DHT22;23564;48.290;11.460;2022-08-21T14:31:58;22.60;1.00
36322;DHT22;23564;48.290;11.460;2022-08-21T14:34:27;22.70;1.00
36322;DHT22;23564;48.290;11.460;2022-08-21T14:36:53;22.70;1.00
36322;DHT22;23564;48.290;11.460;2022-08-21T14:39:20;22.70;1.00
36322;DHT22;23564;48.290;11.460;2022-08-21T14:41:46;22.70;1.00
36322;DHT22;23564;48.290;11.460;2022-08-21T14:44:14;22.80;1.00
36322;DHT22;23564;48.290;11.460;2022-08-21T14:46:41;22.80;1.00
36322;DHT22;23564;48.290;11.460;2022-08-21T14:49:06;22.80;99.90
36322;DHT22;23564;48.290;11.460;2022-08-21T14:51:33;22.90;99.90
36322;DHT22;23564;48.290;11.460;2022-08-21T14:53:59;22.90;1.00
36322;DHT22;23564;48.290;11.460;2022-08-21T14:56:25;23.00;99.90
36322;DHT22;23564;48.290;11.460;2022-08-21T14:58:52;23.10;99.90
36322;DHT22;23564;48.290;11.460;2022-08-21T15:01:19;23.20;99.90
36322;DHT22;23564;48.290;11.460;2022-08-21T15:03:46;23.30;99.90
36322;DHT22;23564;48.290;11.460;2022-08-21T15:06:14;23.40;99.90
36322;DHT22;23564;48.290;11.460;2022-08-21T15:08:41;23.40;99.90
36322;DHT22;23564;48.290;11.460;2022-08-21T15:11:10;23.40;99.90
36322;DHT22;23564;48.290;11.460;2022-08-21T15:13:36;23.60;99.90
36322;DHT22;23564;48.290;11.460;2022-08-21T15:16:03;23.70;99.90
36322;DHT22;23564;48.290;11.460;2022-08-21T15:18:30;23.80;99.90
36322;DHT22;23564;48.290;11.460;2022-08-21T15:20:56;23.90;99.90
36322;DHT22;23564;48.290;11.460;2022-08-21T15:23:22;24.00;99.90
36322;DHT22;23564;48.290;11.460;2022-08-21T15:25:49;24.00;99.90
36322;DHT22;23564;48.290;11.460;2022-08-21T15:28:16;24.00;99.90
36322;DHT22;23564;48.290;11.460;2022-08-21T15:30:44;24.10;93.90
36322;DHT22;23564;48.290;11.460;2022-08-21T15:33:09;24.10;99.90
36322;DHT22;23564;48.290;11.460;2022-08-21T15:35:35;24.10;84.40
36322;DHT22;23564;48.290;11.460;2022-08-21T15:38:02;24.20;30.60
36322;DHT22;23564;48.290;11.460;2022-08-21T15:40:28;24.20;24.30
36322;DHT22;23564;48.290;11.460;2022-08-21T15:43:00;24.20;19.40
36322;DHT22;23564;48.290;11.460;2022-08-21T15:45:26;24.20;45.70
36322;DHT22;23564;48.290;11.460;2022-08-21T15:47:52;24.20;43.20
36322;DHT22;23564;48.290;11.460;2022-08-21T15:50:19;24.00;65.60
36322;DHT22;23564;48.290;11.460;2022-08-21T15:52:44;24.00;96.50
36322;DHT22;23564;48.290;11.460;2022-08-21T15:55:13;23.90;96.30
36322;DHT22;23564;48.290;11.460;2022-08-21T15:57:45;23.90;89.60
36322;DHT22;23564;48.290;11.460;2022-08-21T16:00:23;23.90;42.80
36322;DHT22;23564;48.290;11.460;2022-08-21T16:02:53;23.80;23.00
36322;DHT22;23564;48.290;11.460;2022-08-21T16:05:20;23.80;15.90
36322;DHT22;23564;48.290;11.460;2022-08-21T16:07:48;23.80;8.50
36322;DHT22;23564;48.290;11.460;2022-08-21T16:10:16;23.70;1.00
36322;DHT22;23564;48.290;11.460;2022-08-21T16:12:46;23.70;1.00
36322;DHT22;23564;48.290;11.460;2022-08-21T16:15:14;23.60;1.00
36322;DHT22;23564;48.290;11.460;2022-08-21T16:17:42;23.50;1.00
36322;DHT22;23564;48.290;11.460;2022-08-21T16:20:14;23.40;1.00
36322;DHT22;23564;48.290;11.460;2022-08-21T16:22:40;23.30;1.00
36322;DHT22;23564;48.290;11.460;2022-08-21T16:25:06;23.30;1.00
36322;DHT22;23564;48.290;11.460;2022-08-21T16:27:32;23.20;1.00
36322;DHT22;23564;48.290;11.460;2022-08-21T16:29:59;23.20;1.00
36322;DHT22;23564;48.290;11.460;2022-08-21T16:32:25;23.20;1.00
36322;DHT22;23564;48.290;11.460;2022-08-21T16:34:51;23.10;1.00
36322;DHT22;23564;48.290;11.460;2022-08-21T16:37:17;23.10;1.00